sensor_id;sensor_type;location;lat;lon;timestamp;P1;durP1;ratioP1;P2;durP2;ratioP2
63218;SDS011;49320;52.512;13.448;2023-02-21T00:00:35;3.40;;;3.00;;
63218;SDS011;49320;52.512;13.448;2023-02-21T00:03:20;3.08;;;2.78;;
63218;SDS011;49320;52.512;13.448;2023-02-21T00:06:08;3.25;;;2.95;;
63218;SDS011;49320;52.512;13.448;2023-02-21T00:08:54;2.88;;;2.55;;
63218;SDS011;49320;52.512;13.448;2023-02-21T00:11:40;3.30;;;2.92;;
63218;SDS011;49320;52.512;13.448;2023-02-21T00:14:28;3.30;;;2.80;;
63218;SDS011;49320;52.512;13.448;2023-02-21T00:17:13;2.50;;;2.30;;
63218;SDS011;49320;52.512;13.448;2023-02-21T00:19:59;3.10;;;2.53;;
63218;SDS011;49320;52.512;13.448;2023-02-21T00:22:45;3.17;;;2.67;;
63218;SDS011;49320;52.512;13.448;2023-02-21T00:25:30;2.97;;;2.67;;
63218;SDS011;49320;52.512;13.448;2023-02-21T00:28:16;3.45;;;2.95;;
63218;SDS011;49320;52.512;13.448;2023-02-21T00:31:01;2.67;;;2.47;;
63218;SDS011;49320;52.512;13.448;2023-02-21T00:33:47;2.83;;;2.35;;
63218;SDS011;49320;52.512;13.448;2023-02-21T00:36:32;3.20;;;2.80;;
63218;SDS011;49320;52.512;13.448;2023-02-21T00:39:18;3.15;;;2.75;;
63218;SDS011;49320;52.512;13.448;2023-02-21T00:42:03;3.03;;;2.72;;
63218;SDS011;49320;52.512;13.448;2023-02-21T00:44:49;3.30;;;2.80;;
63218;SDS011;49320;52.512;13.448;2023-02-21T00:47:35;3.00;;;2.33;;
63218;SDS011;49320;52.512;13.448;2023-02-21T00:50:20;3.08;;;2.72;;
63218;SDS011;49320;52.512;13.448;2023-02-21T00:53:06;3.10;;;2.63;;
63218;SDS011;49320;52.512;13.448;2023-02-21T00:55:52;3.85;;;3.40;;
63218;SDS011;49320;52.512;13.448;2023-02-21T00:58:37;3.78;;;3.10;;
63218;SDS011;49320;52.512;13.448;2023-02-21T01:01:23;3.28;;;2.97;;
63218;SDS011;49320;52.512;13.448;2023-02-21T01:04:08;3.50;;;3.20;;
63218;SDS011;49320;52.512;13.448;2023-02-21T01:06:53;4.05;;;3.45;;
63218;SDS011;49320;52.512;13.448;2023-02-21T01:09:39;3.65;;;3.25;;
63218;SDS011;49320;52.512;13.448;2023-02-21T01:12:25;3.95;;;3.50;;
63218;SDS011;49320;52.512;13.448;2023-02-21T01:15:10;4.63;;;3.10;;
63218;SDS011;49320;52.512;13.448;2023-02-21T01:17:56;4.07;;;3.42;;
63218;SDS011;49320;52.512;13.448;2023-02-21T01:20:42;4.18;;;3.33;;
63218;SDS011;49320;52.512;13.448;2023-02-21T01:23:27;4.32;;;3.92;;
63218;SDS011;49320;52.512;13.448;2023-02-21T01:26:13;4.10;;;3.60;;
63218;SDS011;49320;52.512;13.448;2023-02-21T01:28:58;3.97;;;3.58;;
63218;SDS011;49320;52.512;13.448;2023-02-21T01:31:44;3.55;;;3.22;;
63218;SDS011;49320;52.512;13.448;2023-02-21T01:34:29;4.25;;;3.85;;
63218;SDS011;49320;52.512;13.448;2023-02-21T01:37:14;4.60;;;4.20;;
63218;SDS011;49320;52.512;13.448;2023-02-21T01:40:00;6.10;;;5.50;;
63218;SDS011;49320;52.512;13.448;2023-02-21T01:42:45;6.03;;;5.00;;
63218;SDS011;49320;52.512;13.448;2023-02-21T01:48:17;4.75;;;4.25;;
63218;SDS011;49320;52.512;13.448;2023-02-21T01:51:07;6.03;;;4.90;;
63218;SDS011;49320;52.512;13.448;2023-02-21T01:53:55;5.20;;;4.70;;
63218;SDS011;49320;52.512;13.448;2023-02-21T01:56:42;5.50;;;4.63;;
63218;SDS011;49320;52.512;13.448;2023-02-21T01:59:27;4.55;;;4.15;;
63218;SDS011;49320;52.512;13.448;2023-02-21T02:05:12;5.07;;;4.50;;
63218;SDS011;49320;52.512;13.448;2023-02-21T02:07:58;5.55;;;4.60;;
63218;SDS011;49320;52.512;13.448;2023-02-21T02:10:44;5.45;;;4.90;;
63218;SDS011;49320;52.512;13.448;2023-02-21T02:16:40;5.68;;;5.00;;
63218;SDS011;49320;52.512;13.448;2023-02-21T02:19:28;5.28;;;4.78;;
63218;SDS011;49320;52.512;13.448;2023-02-21T02:35:09;6.18;;;5.57;;
63218;SDS011;49320;52.512;13.448;2023-02-21T02:37:55;7.10;;;6.13;;
63218;SDS011;49320;52.512;13.448;2023-02-21T02:40:56;7.53;;;6.72;;
63218;SDS011;49320;52.512;13.448;2023-02-21T02:44:05;6.65;;;5.82;;
63218;SDS011;49320;52.512;13.448;2023-02-21T02:46:47;7.28;;;6.35;;
63218;SDS011;49320;52.512;13.448;2023-02-21T02:51:48;6.20;;;5.57;;
63218;SDS011;49320;52.512;13.448;2023-02-21T02:54:17;5.80;;;5.20;;
63218;SDS011;49320;52.512;13.448;2023-02-21T02:56:44;8.52;;;7.63;;
63218;SDS011;49320;52.512;13.448;2023-02-21T02:59:13;6.70;;;5.95;;
63218;SDS011;49320;52.512;13.448;2023-02-21T03:01:58;8.23;;;6.55;;
63218;SDS011;49320;52.512;13.448;2023-02-21T03:10:44;7.18;;;6.45;;
63218;SDS011;49320;52.512;13.448;2023-02-21T03:16:09;6.30;;;5.55;;
63218;SDS011;49320;52.512;13.448;2023-02-21T03:21:31;7.43;;;6.72;;
63218;SDS011;49320;52.512;13.448;2023-02-21T03:24:01;7.70;;;6.90;;
63218;SDS011;49320;52.512;13.448;2023-02-21T03:26:31;6.55;;;5.85;;
63218;SDS011;49320;52.512;13.448;2023-02-21T03:29:02;7.10;;;6.40;;
63218;SDS011;49320;52.512;13.448;2023-02-21T03:31:32;6.75;;;6.05;;
63218;SDS011;49320;52.512;13.448;2023-02-21T03:34:06;8.13;;;7.32;;
63218;SDS011;49320;52.512;13.448;2023-02-21T03:36:35;6.43;;;5.78;;
63218;SDS011;49320;52.512;13.448;2023-02-21T03:39:03;6.82;;;6.03;;
63218;SDS011;49320;52.512;13.448;2023-02-21T03:41:30;7.10;;;6.28;;
63218;SDS011;49320;52.512;13.448;2023-02-21T03:43:57;6.95;;;6.25;;
63218;SDS011;49320;52.512;13.448;2023-02-21T03:46:24;7.10;;;6.40;;
63218;SDS011;49320;52.512;13.448;2023-02-21T03:48:51;7.32;;;6.53;;
63218;SDS011;49320;52.512;13.448;2023-02-21T03:51:17;6.88;;;6.18;;
63218;SDS011;49320;52.512;13.448;2023-02-21T03:53:45;7.15;;;6.45;;
63218;SDS011;49320;52.512;13.448;2023-02-21T03:56:12;7.03;;;6.30;;
63218;SDS011;49320;52.512;13.448;2023-02-21T03:58:38;6.95;;;5.80;;
63218;SDS011;49320;52.512;13.448;2023-02-21T04:01:05;7.25;;;6.47;;
63218;SDS011;49320;52.512;13.448;2023-02-21T04:03:32;6.20;;;5.53;;
63218;SDS011;49320;52.512;13.448;2023-02-21T04:05:59;6.05;;;5.45;;
63218;SDS011;49320;52.512;13.448;2023-02-21T04:08:26;7.32;;;5.90;;
63218;SDS011;49320;52.512;13.448;2023-02-21T04:10:52;9.02;;;5.80;;
63218;SDS011;49320;52.512;13.448;2023-02-21T04:13:19;6.25;;;5.65;;
63218;SDS011;49320;52.512;13.448;2023-02-21T04:15:48;7.50;;;5.60;;
63218;SDS011;49320;52.512;13.448;2023-02-21T04:18:15;6.25;;;5.65;;
63218;SDS011;49320;52.512;13.448;2023-02-21T04:20:42;6.90;;;6.18;;
63218;SDS011;49320;52.512;13.448;2023-02-21T04:23:09;6.05;;;5.45;;
63218;SDS011;49320;52.512;13.448;2023-02-21T04:25:36;5.80;;;5.20;;
63218;SDS011;49320;52.512;13.448;2023-02-21T04:28:02;6.20;;;5.18;;
63218;SDS011;49320;52.512;13.448;2023-02-21T04:30:29;5.97;;;4.90;;
63218;SDS011;49320;52.512;13.448;2023-02-21T04:32:56;6.05;;;5.45;;
63218;SDS011;49320;52.512;13.448;2023-02-21T04:35:23;6.70;;;5.93;;
63218;SDS011;49320;52.512;13.448;2023-02-21T04:37:50;6.78;;;5.80;;
63218;SDS011;49320;52.512;13.448;2023-02-21T04:40:17;6.93;;;6.22;;
63218;SDS011;49320;52.512;13.448;2023-02-21T04:42:43;7.03;;;5.68;;
63218;SDS011;49320;52.512;13.448;2023-02-21T04:45:10;7.40;;;6.57;;
63218;SDS011;49320;52.512;13.448;2023-02-21T04:47:37;7.70;;;6.30;;
63218;SDS011;49320;52.512;13.448;2023-02-21T04:50:05;7.60;;;6.35;;
63218;SDS011;49320;52.512;13.448;2023-02-21T04:52:32;6.82;;;6.13;;
63218;SDS011;49320;52.512;13.448;2023-02-21T04:54:59;7.93;;;6.60;;
63218;SDS011;49320;52.512;13.448;2023-02-21T04:57:26;7.13;;;6.43;;
63218;SDS011;49320;52.512;13.448;2023-02-21T04:59:56;8.10;;;6.30;;
63218;SDS011;49320;52.512;13.448;2023-02-21T05:02:25;6.80;;;5.95;;
63218;SDS011;49320;52.512;13.448;2023-02-21T05:04:53;7.60;;;6.80;;
63218;SDS011;49320;52.512;13.448;2023-02-21T05:07:20;7.38;;;6.05;;
63218;SDS011;49320;52.512;13.448;2023-02-21T05:09:47;7.47;;;6.47;;
63218;SDS011;49320;52.512;13.448;2023-02-21T05:12:14;8.10;;;7.30;;
63218;SDS011;49320;52.512;13.448;2023-02-21T05:14:41;7.47;;;6.25;;
63218;SDS011;49320;52.512;13.448;2023-02-21T05:17:08;7.90;;;6.55;;
63218;SDS011;49320;52.512;13.448;2023-02-21T05:19:35;6.50;;;5.80;;
63218;SDS011;49320;52.512;13.448;2023-02-21T05:22:02;8.63;;;6.72;;
63218;SDS011;49320;52.512;13.448;2023-02-21T05:24:32;7.20;;;6.50;;
63218;SDS011;49320;52.512;13.448;2023-02-21T05:27:00;7.30;;;6.60;;
63218;SDS011;49320;52.512;13.448;2023-02-21T05:29:27;7.03;;;6.32;;
63218;SDS011;49320;52.512;13.448;2023-02-21T05:31:54;7.43;;;6.07;;
63218;SDS011;49320;52.512;13.448;2023-02-21T05:34:21;6.55;;;5.85;;
63218;SDS011;49320;52.512;13.448;2023-02-21T05:36:48;7.63;;;6.70;;
63218;SDS011;49320;52.512;13.448;2023-02-21T05:39:15;7.50;;;6.70;;
63218;SDS011;49320;52.512;13.448;2023-02-21T05:41:45;7.90;;;7.10;;
63218;SDS011;49320;52.512;13.448;2023-02-21T05:44:14;7.68;;;6.97;;
63218;SDS011;49320;52.512;13.448;2023-02-21T05:46:41;7.60;;;6.68;;
63218;SDS011;49320;52.512;13.448;2023-02-21T05:49:11;6.60;;;5.53;;
63218;SDS011;49320;52.512;13.448;2023-02-21T05:51:39;7.53;;;6.45;;
63218;SDS011;49320;52.512;13.448;2023-02-21T05:54:10;8.15;;;6.20;;
63218;SDS011;49320;52.512;13.448;2023-02-21T05:56:42;7.53;;;6.80;;
63218;SDS011;49320;52.512;13.448;2023-02-21T05:59:10;7.10;;;6.40;;
63218;SDS011;49320;52.512;13.448;2023-02-21T06:01:39;7.43;;;6.72;;
63218;SDS011;49320;52.512;13.448;2023-02-21T06:04:06;7.03;;;5.68;;
63218;SDS011;49320;52.512;13.448;2023-02-21T06:06:33;7.00;;;6.30;;
63218;SDS011;49320;52.512;13.448;2023-02-21T06:09:01;7.60;;;6.18;;
63218;SDS011;49320;52.512;13.448;2023-02-21T06:11:31;6.13;;;5.53;;
63218;SDS011;49320;52.512;13.448;2023-02-21T06:14:00;6.20;;;5.60;;
63218;SDS011;49320;52.512;13.448;2023-02-21T06:16:32;5.88;;;5.15;;
63218;SDS011;49320;52.512;13.448;2023-02-21T06:19:01;7.47;;;5.88;;
63218;SDS011;49320;52.512;13.448;2023-02-21T06:21:30;6.00;;;5.10;;
63218;SDS011;49320;52.512;13.448;2023-02-21T06:23:58;8.38;;;5.75;;
63218;SDS011;49320;52.512;13.448;2023-02-21T06:26:25;6.68;;;5.55;;
63218;SDS011;49320;52.512;13.448;2023-02-21T06:28:52;6.18;;;5.15;;
63218;SDS011;49320;52.512;13.448;2023-02-21T06:31:20;5.97;;;5.13;;
63218;SDS011;49320;52.512;13.448;2023-02-21T06:33:47;5.75;;;5.15;;
63218;SDS011;49320;52.512;13.448;2023-02-21T06:36:17;5.55;;;5.00;;
63218;SDS011;49320;52.512;13.448;2023-02-21T06:38:48;5.10;;;4.57;;
63218;SDS011;49320;52.512;13.448;2023-02-21T06:41:20;5.32;;;4.82;;
63218;SDS011;49320;52.512;13.448;2023-02-21T06:43:54;6.97;;;4.80;;
63218;SDS011;49320;52.512;13.448;2023-02-21T06:46:24;4.95;;;4.20;;
63218;SDS011;49320;52.512;13.448;2023-02-21T06:48:53;4.90;;;4.18;;
63218;SDS011;49320;52.512;13.448;2023-02-21T06:51:20;4.13;;;3.72;;
63218;SDS011;49320;52.512;13.448;2023-02-21T06:53:54;5.25;;;4.75;;
63218;SDS011;49320;52.512;13.448;2023-02-21T06:56:22;4.45;;;4.05;;
63218;SDS011;49320;52.512;13.448;2023-02-21T06:58:49;4.75;;;4.30;;
63218;SDS011;49320;52.512;13.448;2023-02-21T07:01:16;4.78;;;4.20;;
63218;SDS011;49320;52.512;13.448;2023-02-21T07:03:44;7.03;;;4.40;;
63218;SDS011;49320;52.512;13.448;2023-02-21T07:06:12;4.78;;;4.07;;
63218;SDS011;49320;52.512;13.448;2023-02-21T07:08:39;4.60;;;4.13;;
63218;SDS011;49320;52.512;13.448;2023-02-21T07:11:06;3.88;;;3.38;;
63218;SDS011;49320;52.512;13.448;2023-02-21T07:13:33;4.18;;;3.42;;
63218;SDS011;49320;52.512;13.448;2023-02-21T07:16:01;4.10;;;3.70;;
63218;SDS011;49320;52.512;13.448;2023-02-21T07:18:28;5.38;;;4.63;;
63218;SDS011;49320;52.512;13.448;2023-02-21T07:20:56;3.80;;;3.40;;
63218;SDS011;49320;52.512;13.448;2023-02-21T07:23:22;4.28;;;3.88;;
63218;SDS011;49320;52.512;13.448;2023-02-21T07:25:49;4.65;;;3.53;;
63218;SDS011;49320;52.512;13.448;2023-02-21T07:28:16;4.40;;;3.70;;
63218;SDS011;49320;52.512;13.448;2023-02-21T07:30:43;4.60;;;3.45;;
63218;SDS011;49320;52.512;13.448;2023-02-21T07:33:11;3.75;;;3.30;;
63218;SDS011;49320;52.512;13.448;2023-02-21T07:35:38;3.80;;;3.40;;
63218;SDS011;49320;52.512;13.448;2023-02-21T07:38:05;3.63;;;3.20;;
63218;SDS011;49320;52.512;13.448;2023-02-21T07:40:31;3.90;;;2.95;;
63218;SDS011;49320;52.512;13.448;2023-02-21T07:42:58;4.28;;;3.22;;
63218;SDS011;49320;52.512;13.448;2023-02-21T07:45:25;4.18;;;2.53;;
63218;SDS011;49320;52.512;13.448;2023-02-21T07:47:52;3.72;;;3.05;;
63218;SDS011;49320;52.512;13.448;2023-02-21T07:50:19;3.72;;;3.15;;
63218;SDS011;49320;52.512;13.448;2023-02-21T07:52:48;3.83;;;3.17;;
63218;SDS011;49320;52.512;13.448;2023-02-21T07:55:15;3.15;;;2.45;;
63218;SDS011;49320;52.512;13.448;2023-02-21T07:57:42;2.92;;;2.63;;
63218;SDS011;49320;52.512;13.448;2023-02-21T08:00:10;2.33;;;1.80;;
63218;SDS011;49320;52.512;13.448;2023-02-21T08:02:37;2.75;;;1.90;;
63218;SDS011;49320;52.512;13.448;2023-02-21T08:05:05;1.98;;;1.77;;
63218;SDS011;49320;52.512;13.448;2023-02-21T08:07:33;1.65;;;1.42;;
63218;SDS011;49320;52.512;13.448;2023-02-21T08:10:00;2.05;;;1.67;;
63218;SDS011;49320;52.512;13.448;2023-02-21T08:12:27;1.60;;;1.50;;
63218;SDS011;49320;52.512;13.448;2023-02-21T08:14:53;2.38;;;1.92;;
63218;SDS011;49320;52.512;13.448;2023-02-21T08:17:20;2.47;;;1.60;;
63218;SDS011;49320;52.512;13.448;2023-02-21T08:19:47;2.85;;;1.80;;
63218;SDS011;49320;52.512;13.448;2023-02-21T08:22:15;1.55;;;1.40;;
63218;SDS011;49320;52.512;13.448;2023-02-21T08:24:41;1.60;;;1.40;;
63218;SDS011;49320;52.512;13.448;2023-02-21T08:27:08;1.70;;;1.60;;
63218;SDS011;49320;52.512;13.448;2023-02-21T08:29:35;1.77;;;1.48;;
63218;SDS011;49320;52.512;13.448;2023-02-21T08:32:02;2.55;;;1.80;;
63218;SDS011;49320;52.512;13.448;2023-02-21T08:34:29;2.00;;;1.80;;
63218;SDS011;49320;52.512;13.448;2023-02-21T08:36:55;1.85;;;1.60;;
63218;SDS011;49320;52.512;13.448;2023-02-21T08:39:22;2.55;;;1.88;;
63218;SDS011;49320;52.512;13.448;2023-02-21T08:41:49;3.58;;;1.60;;
63218;SDS011;49320;52.512;13.448;2023-02-21T08:44:17;3.00;;;1.45;;
63218;SDS011;49320;52.512;13.448;2023-02-21T08:46:47;1.20;;;1.08;;
63218;SDS011;49320;52.512;13.448;2023-02-21T08:49:15;1.35;;;1.02;;
63218;SDS011;49320;52.512;13.448;2023-02-21T08:51:42;1.65;;;0.90;;
63218;SDS011;49320;52.512;13.448;2023-02-21T08:54:08;1.17;;;1.00;;
63218;SDS011;49320;52.512;13.448;2023-02-21T08:56:35;1.77;;;1.20;;
63218;SDS011;49320;52.512;13.448;2023-02-21T08:59:02;1.23;;;0.90;;
63218;SDS011;49320;52.512;13.448;2023-02-21T09:01:32;1.10;;;1.00;;
63218;SDS011;49320;52.512;13.448;2023-02-21T09:04:01;0.80;;;0.80;;
63218;SDS011;49320;52.512;13.448;2023-02-21T09:06:29;1.40;;;1.00;;
63218;SDS011;49320;52.512;13.448;2023-02-21T09:08:57;1.05;;;0.88;;
63218;SDS011;49320;52.512;13.448;2023-02-21T09:11:24;1.38;;;0.80;;
63218;SDS011;49320;52.512;13.448;2023-02-21T09:13:50;2.08;;;1.30;;
63218;SDS011;49320;52.512;13.448;2023-02-21T09:16:20;3.50;;;1.20;;
63218;SDS011;49320;52.512;13.448;2023-02-21T09:18:57;3.55;;;1.02;;
63218;SDS011;49320;52.512;13.448;2023-02-21T09:21:32;2.33;;;1.05;;
63218;SDS011;49320;52.512;13.448;2023-02-21T09:23:59;1.75;;;0.95;;
63218;SDS011;49320;52.512;13.448;2023-02-21T09:26:28;2.25;;;1.02;;
63218;SDS011;49320;52.512;13.448;2023-02-21T09:28:58;2.38;;;0.90;;
63218;SDS011;49320;52.512;13.448;2023-02-21T09:31:24;2.20;;;1.02;;
63218;SDS011;49320;52.512;13.448;2023-02-21T09:33:51;2.75;;;1.40;;
63218;SDS011;49320;52.512;13.448;2023-02-21T09:36:18;5.57;;;1.40;;
63218;SDS011;49320;52.512;13.448;2023-02-21T09:38:49;2.65;;;1.05;;
63218;SDS011;49320;52.512;13.448;2023-02-21T09:41:16;2.55;;;1.10;;
63218;SDS011;49320;52.512;13.448;2023-02-21T09:43:46;3.35;;;1.42;;
63218;SDS011;49320;52.512;13.448;2023-02-21T09:48:54;4.68;;;1.70;;
63218;SDS011;49320;52.512;13.448;2023-02-21T09:51:22;3.63;;;1.30;;
63218;SDS011;49320;52.512;13.448;2023-02-21T09:53:50;4.90;;;1.48;;
63218;SDS011;49320;52.512;13.448;2023-02-21T09:56:30;3.55;;;1.48;;
63218;SDS011;49320;52.512;13.448;2023-02-21T09:59:09;5.60;;;1.48;;
63218;SDS011;49320;52.512;13.448;2023-02-21T10:10:36;5.70;;;1.50;;
63218;SDS011;49320;52.512;13.448;2023-02-21T10:13:30;3.60;;;1.65;;
63218;SDS011;49320;52.512;13.448;2023-02-21T10:16:16;4.43;;;1.40;;
63218;SDS011;49320;52.512;13.448;2023-02-21T10:19:00;4.88;;;1.63;;
63218;SDS011;49320;52.512;13.448;2023-02-21T10:21:40;4.07;;;1.50;;
63218;SDS011;49320;52.512;13.448;2023-02-21T10:24:12;5.38;;;1.50;;
63218;SDS011;49320;52.512;13.448;2023-02-21T10:27:01;5.38;;;1.42;;
63218;SDS011;49320;52.512;13.448;2023-02-21T10:29:38;5.60;;;1.70;;
63218;SDS011;49320;52.512;13.448;2023-02-21T10:32:30;8.98;;;1.60;;
63218;SDS011;49320;52.512;13.448;2023-02-21T10:34:58;4.72;;;1.73;;
63218;SDS011;49320;52.512;13.448;2023-02-21T10:37:58;4.68;;;1.50;;
63218;SDS011;49320;52.512;13.448;2023-02-21T10:40:29;4.53;;;1.85;;
63218;SDS011;49320;52.512;13.448;2023-02-21T10:48:52;5.68;;;2.20;;
63218;SDS011;49320;52.512;13.448;2023-02-21T10:51:38;5.60;;;2.17;;
63218;SDS011;49320;52.512;13.448;2023-02-21T10:54:18;3.90;;;1.45;;
63218;SDS011;49320;52.512;13.448;2023-02-21T10:56:49;6.22;;;1.52;;
63218;SDS011;49320;52.512;13.448;2023-02-21T10:59:19;5.00;;;1.60;;
63218;SDS011;49320;52.512;13.448;2023-02-21T11:01:54;4.13;;;1.63;;
63218;SDS011;49320;52.512;13.448;2023-02-21T11:04:24;4.03;;;1.30;;
63218;SDS011;49320;52.512;13.448;2023-02-21T11:09:39;6.40;;;1.70;;
63218;SDS011;49320;52.512;13.448;2023-02-21T11:14:43;7.05;;;2.10;;
63218;SDS011;49320;52.512;13.448;2023-02-21T11:17:28;5.63;;;2.15;;
63218;SDS011;49320;52.512;13.448;2023-02-21T11:20:02;3.58;;;1.38;;
63218;SDS011;49320;52.512;13.448;2023-02-21T11:22:46;5.07;;;1.58;;
63218;SDS011;49320;52.512;13.448;2023-02-21T11:25:16;5.85;;;1.38;;
63218;SDS011;49320;52.512;13.448;2023-02-21T11:28:02;5.78;;;1.90;;
63218;SDS011;49320;52.512;13.448;2023-02-21T11:31:03;4.50;;;1.23;;
63218;SDS011;49320;52.512;13.448;2023-02-21T11:33:54;8.15;;;2.00;;
63218;SDS011;49320;52.512;13.448;2023-02-21T11:36:26;5.32;;;1.98;;
63218;SDS011;49320;52.512;13.448;2023-02-21T11:39:06;7.78;;;2.00;;
63218;SDS011;49320;52.512;13.448;2023-02-21T11:41:58;6.70;;;1.80;;
63218;SDS011;49320;52.512;13.448;2023-02-21T11:48:02;5.80;;;2.08;;
63218;SDS011;49320;52.512;13.448;2023-02-21T11:50:39;6.47;;;2.03;;
63218;SDS011;49320;52.512;13.448;2023-02-21T11:53:22;5.57;;;1.85;;
63218;SDS011;49320;52.512;13.448;2023-02-21T11:59:04;5.70;;;1.80;;
63218;SDS011;49320;52.512;13.448;2023-02-21T12:01:57;6.65;;;1.92;;
63218;SDS011;49320;52.512;13.448;2023-02-21T12:07:56;9.55;;;1.75;;
63218;SDS011;49320;52.512;13.448;2023-02-21T12:10:52;7.38;;;2.05;;
63218;SDS011;49320;52.512;13.448;2023-02-21T12:14:23;4.88;;;1.90;;
63218;SDS011;49320;52.512;13.448;2023-02-21T12:16:54;6.18;;;1.80;;
63218;SDS011;49320;52.512;13.448;2023-02-21T12:22:45;7.97;;;2.05;;
63218;SDS011;49320;52.512;13.448;2023-02-21T12:25:46;6.22;;;2.05;;
63218;SDS011;49320;52.512;13.448;2023-02-21T12:28:53;8.02;;;2.13;;
63218;SDS011;49320;52.512;13.448;2023-02-21T12:34:31;8.73;;;2.60;;
63218;SDS011;49320;52.512;13.448;2023-02-21T12:37:43;6.88;;;2.40;;
63218;SDS011;49320;52.512;13.448;2023-02-21T12:43:09;6.90;;;2.53;;
63218;SDS011;49320;52.512;13.448;2023-02-21T12:51:55;8.70;;;2.00;;
63218;SDS011;49320;52.512;13.448;2023-02-21T12:57:12;8.85;;;2.35;;
63218;SDS011;49320;52.512;13.448;2023-02-21T12:59:47;6.50;;;2.22;;
63218;SDS011;49320;52.512;13.448;2023-02-21T13:05:43;7.97;;;1.98;;
63218;SDS011;49320;52.512;13.448;2023-02-21T13:08:18;8.68;;;2.30;;
63218;SDS011;49320;52.512;13.448;2023-02-21T13:13:51;7.57;;;1.92;;
63218;SDS011;49320;52.512;13.448;2023-02-21T13:16:18;6.55;;;2.38;;
63218;SDS011;49320;52.512;13.448;2023-02-21T13:18:48;8.98;;;2.55;;
63218;SDS011;49320;52.512;13.448;2023-02-21T13:21:31;5.30;;;2.15;;
63218;SDS011;49320;52.512;13.448;2023-02-21T13:27:36;11.35;;;2.85;;
63218;SDS011;49320;52.512;13.448;2023-02-21T13:30:26;8.88;;;2.28;;
63218;SDS011;49320;52.512;13.448;2023-02-21T13:33:05;7.60;;;1.70;;
63218;SDS011;49320;52.512;13.448;2023-02-21T13:35:36;8.57;;;2.67;;
63218;SDS011;49320;52.512;13.448;2023-02-21T13:38:06;6.28;;;1.80;;
63218;SDS011;49320;52.512;13.448;2023-02-21T13:40:37;6.97;;;2.55;;
63218;SDS011;49320;52.512;13.448;2023-02-21T13:43:23;8.57;;;2.20;;
63218;SDS011;49320;52.512;13.448;2023-02-21T13:57:37;7.30;;;2.08;;
63218;SDS011;49320;52.512;13.448;2023-02-21T14:02:57;12.50;;;2.40;;
63218;SDS011;49320;52.512;13.448;2023-02-21T14:08:28;9.35;;;2.30;;
63218;SDS011;49320;52.512;13.448;2023-02-21T14:11:18;6.18;;;2.10;;
63218;SDS011;49320;52.512;13.448;2023-02-21T14:13:49;7.93;;;2.33;;
63218;SDS011;49320;52.512;13.448;2023-02-21T14:16:49;6.68;;;2.05;;
63218;SDS011;49320;52.512;13.448;2023-02-21T14:19:32;5.75;;;2.08;;
63218;SDS011;49320;52.512;13.448;2023-02-21T14:24:41;6.88;;;2.20;;
63218;SDS011;49320;52.512;13.448;2023-02-21T14:32:31;7.70;;;2.40;;
63218;SDS011;49320;52.512;13.448;2023-02-21T14:38:01;5.80;;;1.90;;
63218;SDS011;49320;52.512;13.448;2023-02-21T14:40:46;10.35;;;2.95;;
63218;SDS011;49320;52.512;13.448;2023-02-21T14:49:33;7.80;;;2.35;;
63218;SDS011;49320;52.512;13.448;2023-02-21T14:55:28;6.43;;;2.72;;
63218;SDS011;49320;52.512;13.448;2023-02-21T15:07:07;10.23;;;2.50;;
63218;SDS011;49320;52.512;13.448;2023-02-21T15:12:47;10.02;;;2.97;;
63218;SDS011;49320;52.512;13.448;2023-02-21T15:15:22;9.88;;;2.63;;
63218;SDS011;49320;52.512;13.448;2023-02-21T15:17:54;6.20;;;2.17;;
63218;SDS011;49320;52.512;13.448;2023-02-21T15:20:27;7.18;;;2.05;;
63218;SDS011;49320;52.512;13.448;2023-02-21T15:23:09;7.03;;;2.45;;
63218;SDS011;49320;52.512;13.448;2023-02-21T15:25:42;8.88;;;2.55;;
63218;SDS011;49320;52.512;13.448;2023-02-21T15:28:19;5.57;;;1.80;;
63218;SDS011;49320;52.512;13.448;2023-02-21T15:33:34;5.68;;;2.15;;
63218;SDS011;49320;52.512;13.448;2023-02-21T15:36:17;6.95;;;2.78;;
63218;SDS011;49320;52.512;13.448;2023-02-21T15:41:49;6.75;;;2.80;;
63218;SDS011;49320;52.512;13.448;2023-02-21T15:44:21;8.75;;;2.50;;
63218;SDS011;49320;52.512;13.448;2023-02-21T15:47:07;10.10;;;2.53;;
63218;SDS011;49320;52.512;13.448;2023-02-21T15:49:43;9.85;;;2.90;;
63218;SDS011;49320;52.512;13.448;2023-02-21T15:58:11;9.27;;;2.53;;
63218;SDS011;49320;52.512;13.448;2023-02-21T16:01:02;7.45;;;2.28;;
63218;SDS011;49320;52.512;13.448;2023-02-21T16:11:42;10.73;;;2.83;;
63218;SDS011;49320;52.512;13.448;2023-02-21T16:17:26;5.95;;;2.50;;
63218;SDS011;49320;52.512;13.448;2023-02-21T16:22:42;9.95;;;3.00;;
63218;SDS011;49320;52.512;13.448;2023-02-21T16:25:33;9.93;;;2.78;;
63218;SDS011;49320;52.512;13.448;2023-02-21T16:28:00;6.30;;;2.33;;
63218;SDS011;49320;52.512;13.448;2023-02-21T16:30:28;8.50;;;2.83;;
63218;SDS011;49320;52.512;13.448;2023-02-21T16:33:03;11.52;;;3.42;;
63218;SDS011;49320;52.512;13.448;2023-02-21T16:35:31;9.05;;;2.92;;
63218;SDS011;49320;52.512;13.448;2023-02-21T16:37:59;7.15;;;2.58;;
63218;SDS011;49320;52.512;13.448;2023-02-21T16:40:28;7.55;;;2.17;;
63218;SDS011;49320;52.512;13.448;2023-02-21T16:42:58;9.20;;;2.60;;
63218;SDS011;49320;52.512;13.448;2023-02-21T16:45:28;8.18;;;2.15;;
63218;SDS011;49320;52.512;13.448;2023-02-21T16:48:04;7.35;;;2.28;;
63218;SDS011;49320;52.512;13.448;2023-02-21T16:53:04;7.30;;;2.40;;
63218;SDS011;49320;52.512;13.448;2023-02-21T16:55:32;7.18;;;2.00;;
63218;SDS011;49320;52.512;13.448;2023-02-21T16:58:03;9.38;;;3.00;;
63218;SDS011;49320;52.512;13.448;2023-02-21T17:00:33;9.30;;;2.85;;
63218;SDS011;49320;52.512;13.448;2023-02-21T17:03:00;8.68;;;2.92;;
63218;SDS011;49320;52.512;13.448;2023-02-21T17:05:27;6.35;;;2.35;;
63218;SDS011;49320;52.512;13.448;2023-02-21T17:07:54;9.07;;;2.80;;
63218;SDS011;49320;52.512;13.448;2023-02-21T17:10:23;8.63;;;2.63;;
63218;SDS011;49320;52.512;13.448;2023-02-21T17:12:50;9.10;;;2.53;;
63218;SDS011;49320;52.512;13.448;2023-02-21T17:15:16;7.30;;;2.47;;
63218;SDS011;49320;52.512;13.448;2023-02-21T17:17:43;7.88;;;2.70;;
63218;SDS011;49320;52.512;13.448;2023-02-21T17:20:19;6.32;;;2.45;;
63218;SDS011;49320;52.512;13.448;2023-02-21T17:22:48;8.50;;;3.05;;
63218;SDS011;49320;52.512;13.448;2023-02-21T17:25:16;6.82;;;2.70;;
63218;SDS011;49320;52.512;13.448;2023-02-21T17:27:44;10.80;;;3.13;;
63218;SDS011;49320;52.512;13.448;2023-02-21T17:30:11;8.55;;;2.97;;
63218;SDS011;49320;52.512;13.448;2023-02-21T17:32:39;10.45;;;3.25;;
63218;SDS011;49320;52.512;13.448;2023-02-21T17:35:06;9.20;;;2.58;;
63218;SDS011;49320;52.512;13.448;2023-02-21T17:37:34;7.75;;;2.67;;
63218;SDS011;49320;52.512;13.448;2023-02-21T17:40:00;5.82;;;2.80;;
63218;SDS011;49320;52.512;13.448;2023-02-21T17:42:27;8.23;;;2.92;;
63218;SDS011;49320;52.512;13.448;2023-02-21T17:44:54;10.27;;;2.83;;
63218;SDS011;49320;52.512;13.448;2023-02-21T17:47:22;7.10;;;2.85;;
63218;SDS011;49320;52.512;13.448;2023-02-21T17:49:49;9.43;;;2.95;;
63218;SDS011;49320;52.512;13.448;2023-02-21T17:52:19;11.40;;;3.30;;
63218;SDS011;49320;52.512;13.448;2023-02-21T17:54:47;9.32;;;2.90;;
63218;SDS011;49320;52.512;13.448;2023-02-21T17:57:13;6.18;;;2.75;;
63218;SDS011;49320;52.512;13.448;2023-02-21T17:59:40;9.57;;;2.70;;
63218;SDS011;49320;52.512;13.448;2023-02-21T18:02:07;8.40;;;2.80;;
63218;SDS011;49320;52.512;13.448;2023-02-21T18:04:34;10.38;;;2.75;;
63218;SDS011;49320;52.512;13.448;2023-02-21T18:07:01;9.05;;;3.13;;